Time;durP1;ratioP1;P1;durP2;ratioP2;P2;SDS_P1;SDS_P2;PMS_P1;PMS_P2;Temp;Humidity;BMP_temperature;BMP_pressure;BME280_temperature;BME280_humidity;BME280_pressure;Samples;Min_cycle;Max_cycle;Signal;HPM_P1;HPM_P2
2023/08/25 00:00:56;;;;;;;123.70;68.90;;;;;;;;;;4991009;28;20164;-80
2023/08/25 00:03:22;;;;;;;137.50;74.15;;;;;;;;;;5006414;28;20030;-80
2023/08/25 00:05:51;;;;;;;141.23;76.15;;;;;;;;;;5012575;28;20049;-81
2023/08/25 00:08:18;;;;;;;150.50;77.53;;;;;;;;;;5011037;28;20391;-80
2023/08/25 00:10:45;;;;;;;166.05;85.57;;;;;;;;;;5005529;28;20373;-81
2023/08/25 00:13:12;;;;;;;154.48;80.90;;;;;;;;;;5012268;28;20111;-81
2023/08/25 00:15:40;;;;;;;176.77;86.90;;;;;;;;;;5013020;28;20030;-80
2023/08/25 00:18:06;;;;;;;175.98;88.90;;;;;;;;;;4994104;28;20048;-79
2023/08/25 00:23:38;;;;;;;174.45;83.97;;;;;;;;;;5025641;28;20030;-84
2023/08/25 00:26:05;;;;;;;181.27;86.50;;;;;;;;;;5019557;28;20100;-80
2023/08/25 00:28:31;;;;;;;176.93;87.82;;;;;;;;;;4993721;28;20034;-82
2023/08/25 00:30:58;;;;;;;169.98;87.22;;;;;;;;;;4990364;28;20034;-81
2023/08/25 00:33:24;;;;;;;182.93;88.88;;;;;;;;;;5010476;28;20053;-80
2023/08/25 00:35:50;;;;;;;181.82;87.40;;;;;;;;;;4960524;28;20125;-80
2023/08/25 00:38:16;;;;;;;187.93;89.93;;;;;;;;;;5011649;28;20038;-80
2023/08/25 00:40:42;;;;;;;187.93;88.22;;;;;;;;;;5012272;28;20030;-81
2023/08/25 00:43:09;;;;;;;183.43;88.88;;;;;;;;;;4990761;28;20104;-81
2023/08/25 00:45:38;;;;;;;180.98;86.07;;;;;;;;;;5008999;28;20038;-81
2023/08/25 00:48:05;;;;;;;201.02;90.70;;;;;;;;;;5011798;28;20202;-80
2023/08/25 00:50:31;;;;;;;192.13;87.95;;;;;;;;;;4994333;28;20038;-81
2023/08/25 00:52:57;;;;;;;195.68;89.47;;;;;;;;;;4989601;28;20083;-81
2023/08/25 00:55:24;;;;;;;200.77;90.00;;;;;;;;;;4995154;28;20053;-80
2023/08/25 00:57:50;;;;;;;202.20;91.22;;;;;;;;;;4985877;28;20093;-79
2023/08/25 01:00:17;;;;;;;203.88;90.45;;;;;;;;;;5001611;28;20099;-80
2023/08/25 01:02:43;;;;;;;224.88;91.60;;;;;;;;;;5007140;28;20019;-82
2023/08/25 01:05:09;;;;;;;230.23;93.60;;;;;;;;;;5010407;28;20022;-79
2023/08/25 01:07:35;;;;;;;221.43;90.13;;;;;;;;;;4988182;28;20046;-80
2023/08/25 01:10:02;;;;;;;221.25;92.18;;;;;;;;;;5007357;28;20072;-80
2023/08/25 01:12:51;;;;;;;212.55;88.93;;;;;;;;;;5008052;28;20033;-80
2023/08/25 01:15:30;;;;;;;218.45;93.68;;;;;;;;;;5001990;28;20034;-81
2023/08/25 01:18:06;;;;;;;224.05;91.10;;;;;;;;;;5006551;28;20045;-80
2023/08/25 01:20:32;;;;;;;218.45;93.20;;;;;;;;;;5006931;28;20022;-80
2023/08/25 01:22:58;;;;;;;231.73;94.70;;;;;;;;;;5009831;28;20111;-80
2023/08/25 01:25:26;;;;;;;233.48;95.35;;;;;;;;;;4991568;28;20426;-80
2023/08/25 01:27:52;;;;;;;233.15;96.28;;;;;;;;;;5000061;28;20020;-81
2023/08/25 01:30:22;;;;;;;233.30;93.95;;;;;;;;;;5003360;28;20028;-81
2023/08/25 01:32:49;;;;;;;237.02;93.13;;;;;;;;;;4987495;28;20205;-80
2023/08/25 01:35:15;;;;;;;250.40;96.03;;;;;;;;;;4995660;28;20121;-81
2023/08/25 01:37:53;;;;;;;277.67;97.43;;;;;;;;;;5020087;28;20009;-85
2023/08/25 01:40:24;;;;;;;288.38;99.65;;;;;;;;;;5021323;28;20028;-81
2023/08/25 01:42:51;;;;;;;277.95;99.90;;;;;;;;;;5010910;28;20044;-80
2023/08/25 01:45:17;;;;;;;263.52;97.32;;;;;;;;;;5007098;28;20076;-80
2023/08/25 01:47:46;;;;;;;325.75;107.60;;;;;;;;;;5006374;28;20026;-80
2023/08/25 01:50:13;;;;;;;335.42;108.15;;;;;;;;;;4987232;28;20036;-80
2023/08/25 01:52:39;;;;;;;299.52;102.93;;;;;;;;;;5007496;28;20026;-82
2023/08/25 01:55:06;;;;;;;285.60;102.30;;;;;;;;;;4988815;28;20037;-79
2023/08/25 01:57:34;;;;;;;287.23;102.13;;;;;;;;;;5005067;28;20046;-79
2023/08/25 02:00:01;;;;;;;303.17;103.55;;;;;;;;;;4990416;28;20069;-79
2023/08/25 02:02:27;;;;;;;320.63;105.82;;;;;;;;;;4991855;28;20037;-80
2023/08/25 02:04:54;;;;;;;335.17;108.43;;;;;;;;;;4990376;28;20120;-80
2023/08/25 02:07:20;;;;;;;322.05;106.65;;;;;;;;;;4990945;28;20035;-80
2023/08/25 02:09:48;;;;;;;300.92;103.90;;;;;;;;;;4983494;28;20032;-81
2023/08/25 02:12:14;;;;;;;367.00;113.50;;;;;;;;;;5005321;28;20613;-80
2023/08/25 02:14:40;;;;;;;338.00;108.88;;;;;;;;;;5016855;28;20050;-79
2023/08/25 02:17:06;;;;;;;344.75;111.88;;;;;;;;;;5016980;28;20018;-84
2023/08/25 02:19:35;;;;;;;348.60;113.32;;;;;;;;;;5001195;28;20041;-79
2023/08/25 02:22:01;;;;;;;327.75;110.40;;;;;;;;;;4990528;28;20034;-80
2023/08/25 02:24:30;;;;;;;323.75;110.18;;;;;;;;;;5002370;28;20515;-80
2023/08/25 02:26:56;;;;;;;343.08;112.93;;;;;;;;;;5005646;28;20050;-79
2023/08/25 02:29:24;;;;;;;352.65;111.72;;;;;;;;;;5006570;28;20026;-80
2023/08/25 02:31:50;;;;;;;384.20;115.38;;;;;;;;;;4987744;28;20108;-80
2023/08/25 02:34:16;;;;;;;362.50;110.53;;;;;;;;;;5008657;28;20589;-81
2023/08/25 02:36:42;;;;;;;371.25;113.65;;;;;;;;;;5006333;28;20089;-81
2023/08/25 02:39:08;;;;;;;370.20;115.22;;;;;;;;;;5000404;28;20026;-80
2023/08/25 02:41:34;;;;;;;365.73;114.28;;;;;;;;;;4986356;28;20173;-80
2023/08/25 02:44:01;;;;;;;387.75;114.63;;;;;;;;;;5004201;28;20030;-80
2023/08/25 02:46:27;;;;;;;367.95;110.80;;;;;;;;;;5003730;28;20030;-80
2023/08/25 02:48:53;;;;;;;366.10;112.35;;;;;;;;;;4990158;28;20026;-80
2023/08/25 02:51:19;;;;;;;360.90;110.63;;;;;;;;;;4993399;28;20107;-82
2023/08/25 02:53:45;;;;;;;360.63;107.70;;;;;;;;;;5016627;28;20042;-81
2023/08/25 02:56:11;;;;;;;364.75;108.35;;;;;;;;;;5003871;28;20513;-80
2023/08/25 02:58:38;;;;;;;390.63;114.03;;;;;;;;;;5000203;28;20410;-84
2023/08/25 03:01:11;;;;;;;381.02;110.00;;;;;;;;;;4999192;28;20034;-80
2023/08/25 03:03:38;;;;;;;390.55;113.70;;;;;;;;;;4990521;28;20045;-79
2023/08/25 03:06:05;;;;;;;413.40;113.80;;;;;;;;;;5007917;28;20121;-80
2023/08/25 03:08:32;;;;;;;432.70;111.50;;;;;;;;;;4989029;28;20073;-79
2023/08/25 03:11:02;;;;;;;408.98;110.00;;;;;;;;;;4990590;28;20072;-80
2023/08/25 03:13:28;;;;;;;440.40;110.28;;;;;;;;;;4988804;28;20117;-80
2023/08/25 03:15:59;;;;;;;417.33;108.75;;;;;;;;;;4989725;28;20084;-80
2023/08/25 03:18:26;;;;;;;462.67;115.40;;;;;;;;;;4991147;28;20026;-80
2023/08/25 03:20:52;;;;;;;487.02;118.55;;;;;;;;;;5006731;28;20041;-80
2023/08/25 03:23:19;;;;;;;433.10;108.60;;;;;;;;;;4990332;28;20557;-81
2023/08/25 03:25:45;;;;;;;450.55;115.97;;;;;;;;;;4989220;28;20025;-79
2023/08/25 03:28:12;;;;;;;482.25;118.20;;;;;;;;;;4975097;28;20091;-80
2023/08/25 03:30:38;;;;;;;457.88;117.88;;;;;;;;;;5010649;28;20121;-82
2023/08/25 03:33:06;;;;;;;493.65;123.22;;;;;;;;;;5001103;28;20192;-78
2023/08/25 03:35:33;;;;;;;447.55;115.63;;;;;;;;;;5008053;28;20128;-82
2023/08/25 03:38:00;;;;;;;480.60;118.72;;;;;;;;;;4993904;28;20045;-80
2023/08/25 03:40:26;;;;;;;471.23;121.28;;;;;;;;;;4990456;28;20034;-79
2023/08/25 03:42:53;;;;;;;491.92;116.90;;;;;;;;;;4988974;28;20062;-79
2023/08/25 03:45:19;;;;;;;435.63;116.60;;;;;;;;;;4956879;28;20021;-81
2023/08/25 03:47:45;;;;;;;516.25;121.65;;;;;;;;;;4970578;28;20151;-79
2023/08/25 03:50:11;;;;;;;508.73;120.28;;;;;;;;;;4971636;28;20026;-80
2023/08/25 03:52:38;;;;;;;463.73;118.65;;;;;;;;;;5005811;28;20427;-79
2023/08/25 03:55:04;;;;;;;507.83;122.18;;;;;;;;;;4973792;28;20034;-80
2023/08/25 03:57:31;;;;;;;492.00;117.07;;;;;;;;;;4989931;28;20041;-81
2023/08/25 03:59:57;;;;;;;446.65;110.45;;;;;;;;;;5002213;28;20030;-81
2023/08/25 04:02:23;;;;;;;484.10;117.88;;;;;;;;;;5003391;28;20042;-81
2023/08/25 04:04:51;;;;;;;460.67;114.50;;;;;;;;;;4989756;28;20124;-81
2023/08/25 04:07:19;;;;;;;466.35;112.03;;;;;;;;;;5006715;28;20033;-79
2023/08/25 04:09:45;;;;;;;471.48;111.50;;;;;;;;;;4983166;28;20034;-79
2023/08/25 04:12:14;;;;;;;463.98;112.70;;;;;;;;;;5018094;28;20173;-80
2023/08/25 04:14:40;;;;;;;479.75;117.97;;;;;;;;;;5016013;28;20022;-80
2023/08/25 04:17:07;;;;;;;485.23;115.53;;;;;;;;;;5008116;28;20049;-80
2023/08/25 04:19:34;;;;;;;465.25;115.82;;;;;;;;;;4981984;28;20096;-81
2023/08/25 04:22:00;;;;;;;510.13;118.15;;;;;;;;;;4987010;28;20037;-81
2023/08/25 04:24:29;;;;;;;535.55;123.85;;;;;;;;;;4972394;28;20058;-80
2023/08/25 04:26:57;;;;;;;506.90;124.47;;;;;;;;;;4989320;28;20505;-80
2023/08/25 04:29:23;;;;;;;455.55;112.45;;;;;;;;;;4978189;28;20049;-80
2023/08/25 04:31:49;;;;;;;465.50;116.18;;;;;;;;;;4973319;28;20037;-79
2023/08/25 04:34:23;;;;;;;465.02;116.32;;;;;;;;;;4989988;28;20121;-80
2023/08/25 04:36:50;;;;;;;551.25;122.45;;;;;;;;;;4972708;28;20041;-80
2023/08/25 04:39:16;;;;;;;499.05;118.55;;;;;;;;;;5006794;28;20738;-80
2023/08/25 04:41:42;;;;;;;482.58;117.57;;;;;;;;;;4978821;28;20095;-80
2023/08/25 04:44:09;;;;;;;475.60;117.05;;;;;;;;;;5008301;28;20029;-80
2023/08/25 04:46:36;;;;;;;475.60;114.95;;;;;;;;;;4996767;28;20537;-82
2023/08/25 04:49:02;;;;;;;454.80;117.30;;;;;;;;;;5002548;28;20069;-80
2023/08/25 04:51:28;;;;;;;460.10;113.95;;;;;;;;;;5007782;28;20073;-82
2023/08/25 04:53:55;;;;;;;474.40;118.05;;;;;;;;;;5008155;28;20034;-83
2023/08/25 04:56:21;;;;;;;508.38;124.22;;;;;;;;;;4994344;28;20046;-80
2023/08/25 04:58:47;;;;;;;473.55;116.05;;;;;;;;;;5006158;28;20029;-82
2023/08/25 05:01:14;;;;;;;519.13;123.68;;;;;;;;;;4990357;28;20078;-81
2023/08/25 05:03:42;;;;;;;449.15;115.00;;;;;;;;;;5009237;28;20038;-81
2023/08/25 05:06:08;;;;;;;467.08;116.70;;;;;;;;;;4987281;28;20081;-82
2023/08/25 05:08:35;;;;;;;495.55;116.22;;;;;;;;;;4991723;28;20116;-82
2023/08/25 05:11:03;;;;;;;459.10;113.72;;;;;;;;;;4975081;28;21566;-79
2023/08/25 05:13:30;;;;;;;477.00;117.78;;;;;;;;;;5006351;28;20129;-81
2023/08/25 05:15:57;;;;;;;483.02;119.03;;;;;;;;;;5004818;28;20073;-80
2023/08/25 05:19:02;;;;;;;462.08;113.57;;;;;;;;;;5011341;28;20041;-79
2023/08/25 05:21:29;;;;;;;408.80;110.53;;;;;;;;;;4987866;28;20434;-78
2023/08/25 05:24:14;;;;;;;464.77;115.45;;;;;;;;;;5018353;28;20049;-79
2023/08/25 05:26:40;;;;;;;421.90;112.97;;;;;;;;;;5002602;28;20026;-78
2023/08/25 05:29:06;;;;;;;403.90;109.85;;;;;;;;;;5007377;28;20045;-80
2023/08/25 05:31:32;;;;;;;442.13;113.80;;;;;;;;;;4987794;28;20018;-80
2023/08/25 05:34:21;;;;;;;404.55;111.93;;;;;;;;;;4995943;28;20076;-81
2023/08/25 05:36:52;;;;;;;;;;;;;;;;;;4979904;28;21507;-84
2023/08/25 05:39:18;;;;;;;389.27;105.88;;;;;;;;;;4992606;28;19909;-82
2023/08/25 05:41:44;;;;;;;406.15;107.85;;;;;;;;;;5009132;28;20034;-84
2023/08/25 05:44:11;;;;;;;390.80;106.90;;;;;;;;;;4996805;28;20088;-82
2023/08/25 05:46:40;;;;;;;427.55;113.03;;;;;;;;;;4991152;28;20044;-81
2023/08/25 05:49:08;;;;;;;381.70;105.18;;;;;;;;;;5008307;28;20494;-83
2023/08/25 05:51:34;;;;;;;377.10;105.03;;;;;;;;;;5006397;28;20122;-81
2023/08/25 05:54:01;;;;;;;429.55;114.75;;;;;;;;;;5001689;28;20062;-83
2023/08/25 05:56:27;;;;;;;420.42;110.00;;;;;;;;;;5011028;28;20058;-81
2023/08/25 05:58:54;;;;;;;407.13;105.55;;;;;;;;;;5020634;28;20053;-83
2023/08/25 06:01:20;;;;;;;400.13;107.30;;;;;;;;;;5008078;28;21435;-82
2023/08/25 06:03:46;;;;;;;387.33;103.95;;;;;;;;;;5034813;28;20038;-82
2023/08/25 06:06:12;;;;;;;375.33;104.57;;;;;;;;;;5028627;28;20030;-83
2023/08/25 06:08:38;;;;;;;366.88;105.65;;;;;;;;;;5006341;28;20025;-84
2023/08/25 06:11:07;;;;;;;379.15;106.07;;;;;;;;;;5011061;28;20030;-83
2023/08/25 06:13:33;;;;;;;356.90;100.03;;;;;;;;;;5009233;28;20061;-83
2023/08/25 06:15:59;;;;;;;334.98;102.00;;;;;;;;;;5011649;28;20022;-83
2023/08/25 06:18:25;;;;;;;324.73;101.82;;;;;;;;;;4993219;28;20206;-81
2023/08/25 06:20:54;;;;;;;316.50;101.60;;;;;;;;;;5009566;28;20038;-81
2023/08/25 06:23:20;;;;;;;318.30;100.97;;;;;;;;;;5007524;28;20183;-81
2023/08/25 06:25:46;;;;;;;274.88;96.38;;;;;;;;;;4997217;28;20026;-81
2023/08/25 06:28:13;;;;;;;260.77;93.20;;;;;;;;;;5011415;28;20033;-81
2023/08/25 06:30:42;;;;;;;257.10;92.20;;;;;;;;;;5013286;28;20034;-83
2023/08/25 06:33:14;;;;;;;228.20;89.38;;;;;;;;;;5010620;28;20034;-81
2023/08/25 06:35:42;;;;;;;228.30;88.63;;;;;;;;;;5014576;28;20053;-81
2023/08/25 06:38:08;;;;;;;214.73;89.88;;;;;;;;;;5011900;28;20026;-81
2023/08/25 06:40:36;;;;;;;203.93;87.25;;;;;;;;;;5005506;28;20034;-82
2023/08/25 06:43:09;;;;;;;201.85;86.10;;;;;;;;;;5022493;28;20080;-81
2023/08/25 06:45:38;;;;;;;197.30;83.82;;;;;;;;;;5016732;28;20025;-81
2023/08/25 06:48:05;;;;;;;195.15;82.18;;;;;;;;;;4999417;28;20156;-80
2023/08/25 06:50:31;;;;;;;201.10;85.05;;;;;;;;;;4994929;28;20535;-80
2023/08/25 06:52:57;;;;;;;181.32;81.78;;;;;;;;;;5004609;28;20049;-81
2023/08/25 06:55:27;;;;;;;176.02;78.90;;;;;;;;;;4988128;28;20126;-81
2023/08/25 06:57:53;;;;;;;180.35;82.10;;;;;;;;;;5021224;28;20060;-81
2023/08/25 07:00:19;;;;;;;174.73;81.25;;;;;;;;;;5018297;28;20033;-80
2023/08/25 07:02:45;;;;;;;136.88;74.07;;;;;;;;;;5016175;28;20033;-82
2023/08/25 07:05:13;;;;;;;127.72;71.78;;;;;;;;;;4992735;28;20065;-81
2023/08/25 07:07:42;;;;;;;139.20;75.10;;;;;;;;;;4994272;28;20060;-80
2023/08/25 07:10:09;;;;;;;114.88;66.25;;;;;;;;;;5023481;28;20021;-82
2023/08/25 07:12:35;;;;;;;109.03;63.45;;;;;;;;;;5017127;28;20045;-81
2023/08/25 07:15:02;;;;;;;101.40;60.08;;;;;;;;;;4988736;28;20038;-81
2023/08/25 07:17:29;;;;;;;93.82;57.47;;;;;;;;;;5020181;28;20026;-80
2023/08/25 07:19:55;;;;;;;81.38;55.75;;;;;;;;;;4998005;28;20470;-80
2023/08/25 07:22:21;;;;;;;68.90;49.67;;;;;;;;;;5025360;28;20030;-80
2023/08/25 07:24:50;;;;;;;66.50;46.80;;;;;;;;;;5012593;28;20069;-82
2023/08/25 07:27:17;;;;;;;65.82;45.85;;;;;;;;;;5009864;28;20040;-81
2023/08/25 07:29:43;;;;;;;64.25;45.22;;;;;;;;;;5018244;28;20466;-80
2023/08/25 07:32:09;;;;;;;69.70;49.25;;;;;;;;;;5001869;28;20090;-80
2023/08/25 07:34:36;;;;;;;69.40;46.50;;;;;;;;;;5012324;28;20026;-80
2023/08/25 07:37:02;;;;;;;74.78;50.17;;;;;;;;;;5010570;28;20053;-79
2023/08/25 07:39:30;;;;;;;74.55;50.33;;;;;;;;;;5010897;28;20033;-80
2023/08/25 07:41:56;;;;;;;78.03;52.40;;;;;;;;;;5021239;28;20046;-81
2023/08/25 07:44:23;;;;;;;79.82;51.42;;;;;;;;;;5015666;28;20038;-81
2023/08/25 07:46:49;;;;;;;78.13;51.63;;;;;;;;;;4994991;28;20033;-81
2023/08/25 07:49:15;;;;;;;82.82;52.13;;;;;;;;;;5012140;28;20072;-82
2023/08/25 07:51:41;;;;;;;82.47;52.85;;;;;;;;;;5024272;28;20042;-82
2023/08/25 07:54:07;;;;;;;82.75;53.05;;;;;;;;;;5023275;28;20037;-83
2023/08/25 07:56:34;;;;;;;77.40;51.95;;;;;;;;;;5021300;28;20056;-81
2023/08/25 07:59:00;;;;;;;77.20;50.70;;;;;;;;;;5004702;28;20038;-81
2023/08/25 08:01:26;;;;;;;80.65;51.50;;;;;;;;;;5009754;28;20038;-80
2023/08/25 08:03:52;;;;;;;80.75;52.03;;;;;;;;;;5004590;28;20124;-81
2023/08/25 08:06:18;;;;;;;79.93;51.33;;;;;;;;;;5018328;28;20030;-79
2023/08/25 08:08:44;;;;;;;85.45;51.30;;;;;;;;;;5014696;28;20688;-81
2023/08/25 08:11:12;;;;;;;80.88;52.28;;;;;;;;;;5019365;28;20097;-82
2023/08/25 08:13:39;;;;;;;74.90;50.90;;;;;;;;;;4985915;28;20030;-81
2023/08/25 08:16:05;;;;;;;71.60;49.03;;;;;;;;;;5014102;28;20060;-81
2023/08/25 08:18:31;;;;;;;73.28;51.83;;;;;;;;;;4993159;28;20162;-81
2023/08/25 08:20:57;;;;;;;79.15;51.95;;;;;;;;;;5006979;28;20511;-83
2023/08/25 08:23:24;;;;;;;75.93;52.30;;;;;;;;;;5008277;28;20042;-81
2023/08/25 08:25:50;;;;;;;69.88;48.72;;;;;;;;;;5023994;28;20033;-80
2023/08/25 08:28:18;;;;;;;67.22;50.15;;;;;;;;;;5016824;28;20038;-79
2023/08/25 08:30:44;;;;;;;68.78;48.42;;;;;;;;;;5033662;28;20026;-82
2023/08/25 08:33:10;;;;;;;66.70;48.53;;;;;;;;;;5010856;28;20041;-80
2023/08/25 08:35:37;;;;;;;65.10;47.00;;;;;;;;;;5020685;28;20094;-79
2023/08/25 08:38:05;;;;;;;62.67;47.00;;;;;;;;;;5001203;28;20056;-81
2023/08/25 08:40:32;;;;;;;68.93;50.63;;;;;;;;;;5005800;28;20042;-80
2023/08/25 08:43:04;;;;;;;67.60;48.33;;;;;;;;;;5000750;28;20030;-80
2023/08/25 08:45:38;;;;;;;73.63;49.53;;;;;;;;;;5028729;28;20037;-80
2023/08/25 08:48:06;;;;;;;66.95;48.00;;;;;;;;;;5009591;28;20116;-81
2023/08/25 08:50:32;;;;;;;68.78;48.95;;;;;;;;;;4994567;28;20025;-80
2023/08/25 08:53:00;;;;;;;76.47;50.40;;;;;;;;;;4997283;28;20034;-80
2023/08/25 08:55:27;;;;;;;68.60;47.75;;;;;;;;;;5010022;28;20624;-81
2023/08/25 08:57:53;;;;;;;73.85;50.03;;;;;;;;;;5010714;28;20098;-79
2023/08/25 09:00:20;;;;;;;72.80;48.60;;;;;;;;;;5014049;28;20510;-80
2023/08/25 09:02:53;;;;;;;69.10;45.80;;;;;;;;;;4997118;28;20029;-79
2023/08/25 09:05:27;;;;;;;72.72;49.72;;;;;;;;;;4997305;28;20355;-78
2023/08/25 09:07:57;;;;;;;71.35;46.58;;;;;;;;;;5019304;28;20029;-78
2023/08/25 09:10:27;;;;;;;71.68;47.42;;;;;;;;;;5022991;28;20022;-79
2023/08/25 09:12:53;;;;;;;70.43;46.25;;;;;;;;;;5018680;28;20041;-80
2023/08/25 09:15:28;;;;;;;75.53;49.50;;;;;;;;;;4997020;28;20026;-79
2023/08/25 09:18:04;;;;;;;71.22;47.58;;;;;;;;;;5006232;28;20056;-80
2023/08/25 09:20:33;;;;;;;72.85;47.58;;;;;;;;;;5003894;28;20123;-79
2023/08/25 09:23:00;;;;;;;71.82;48.70;;;;;;;;;;4995070;28;20044;-78
2023/08/25 09:25:27;;;;;;;72.85;48.45;;;;;;;;;;5010215;28;20049;-79
2023/08/25 09:27:57;;;;;;;71.75;48.45;;;;;;;;;;4996500;28;20037;-80
2023/08/25 09:30:33;;;;;;;66.50;45.08;;;;;;;;;;5012709;28;20113;-79
2023/08/25 09:33:18;;;;;;;72.05;48.17;;;;;;;;;;5012537;28;20030;-80
2023/08/25 09:35:45;;;;;;;68.53;46.35;;;;;;;;;;5011093;28;20290;-81
2023/08/25 09:38:21;;;;;;;74.78;48.90;;;;;;;;;;4993593;28;20042;-79
2023/08/25 09:40:47;;;;;;;67.88;46.60;;;;;;;;;;5006088;28;20089;-78
2023/08/25 09:43:13;;;;;;;72.50;48.22;;;;;;;;;;5014611;28;20044;-79
2023/08/25 09:45:40;;;;;;;72.60;50.20;;;;;;;;;;5015722;28;20022;-87
2023/08/25 09:48:12;;;;;;;67.63;46.97;;;;;;;;;;5019620;28;20103;-80
2023/08/25 09:50:39;;;;;;;64.38;44.03;;;;;;;;;;5014217;28;20388;-88
2023/08/25 09:53:06;;;;;;;63.17;45.17;;;;;;;;;;4990113;28;20105;-80
2023/08/25 09:55:39;;;;;;;62.08;44.67;;;;;;;;;;4975357;28;20082;-79
2023/08/25 09:58:09;;;;;;;65.53;44.50;;;;;;;;;;4985805;28;20038;-80
2023/08/25 10:00:37;;;;;;;61.03;43.17;;;;;;;;;;4992900;28;20097;-78
2023/08/25 10:03:03;;;;;;;62.15;43.30;;;;;;;;;;4991142;28;20117;-76
2023/08/25 10:05:32;;;;;;;67.10;43.35;;;;;;;;;;4991757;28;20096;-79
2023/08/25 10:07:59;;;;;;;68.50;45.85;;;;;;;;;;4991173;28;20026;-79
2023/08/25 10:10:27;;;;;;;66.38;46.10;;;;;;;;;;4992405;28;20022;-83
2023/08/25 10:12:57;;;;;;;58.80;40.33;;;;;;;;;;4984169;28;20085;-80
2023/08/25 10:15:25;;;;;;;59.13;40.97;;;;;;;;;;4990756;28;20044;-78
2023/08/25 10:17:53;;;;;;;63.05;42.00;;;;;;;;;;4960728;28;20104;-78
2023/08/25 10:20:22;;;;;;;53.60;39.42;;;;;;;;;;4982725;28;20046;-79
2023/08/25 10:22:49;;;;;;;50.97;38.63;;;;;;;;;;4991355;28;20033;-80
2023/08/25 10:25:16;;;;;;;54.03;39.92;;;;;;;;;;4989420;28;20368;-80
2023/08/25 10:27:42;;;;;;;50.65;38.83;;;;;;;;;;4991846;28;20099;-78
2023/08/25 10:30:09;;;;;;;57.05;38.53;;;;;;;;;;4992011;28;20113;-78
2023/08/25 10:32:48;;;;;;;57.53;41.58;;;;;;;;;;4991720;28;20046;-78
2023/08/25 10:35:14;;;;;;;58.67;38.72;;;;;;;;;;4987992;28;20026;-78
2023/08/25 10:37:40;;;;;;;54.58;40.83;;;;;;;;;;4985571;28;20681;-78
2023/08/25 10:40:10;;;;;;;54.42;38.88;;;;;;;;;;4994146;28;20042;-77
2023/08/25 10:42:36;;;;;;;60.13;39.73;;;;;;;;;;4982563;28;20103;-78
2023/08/25 10:45:02;;;;;;;63.08;39.38;;;;;;;;;;4990809;28;20034;-77
2023/08/25 10:47:29;;;;;;;57.30;40.78;;;;;;;;;;4990120;28;20488;-77
2023/08/25 10:49:55;;;;;;;53.33;40.33;;;;;;;;;;4992475;28;20131;-78
2023/08/25 10:52:22;;;;;;;59.10;40.28;;;;;;;;;;4991395;28;20476;-78
2023/08/25 10:54:51;;;;;;;54.58;40.17;;;;;;;;;;4991331;28;20101;-77
2023/08/25 10:57:21;;;;;;;56.33;39.90;;;;;;;;;;5003559;28;20049;-78
2023/08/25 10:59:51;;;;;;;52.80;40.33;;;;;;;;;;5008501;28;20042;-79
2023/08/25 11:02:17;;;;;;;;;;;;;;;;;;5018294;28;20057;-77
2023/08/25 11:04:45;;;;;;;59.75;40.97;;;;;;;;;;5011382;28;19929;-78
2023/08/25 11:07:31;;;;;;;57.15;41.22;;;;;;;;;;5007976;28;20049;-78
2023/08/25 11:10:11;;;;;;;55.38;39.30;;;;;;;;;;4983077;28;20053;-77
2023/08/25 11:12:38;;;;;;;56.17;40.15;;;;;;;;;;4999902;28;20448;-78
2023/08/25 11:15:08;;;;;;;54.72;37.97;;;;;;;;;;5008423;28;20038;-77
2023/08/25 11:17:34;;;;;;;61.63;45.78;;;;;;;;;;5009201;28;20109;-77
2023/08/25 11:20:01;;;;;;;65.45;46.38;;;;;;;;;;5010160;28;20061;-77
2023/08/25 11:22:27;;;;;;;62.72;46.65;;;;;;;;;;5000266;28;20073;-77
2023/08/25 11:24:53;;;;;;;65.28;43.75;;;;;;;;;;4995214;28;20038;-77
2023/08/25 11:27:22;;;;;;;62.78;45.35;;;;;;;;;;5006521;28;20047;-78
2023/08/25 11:29:49;;;;;;;67.32;46.05;;;;;;;;;;5004294;28;20022;-77
2023/08/25 11:32:15;;;;;;;63.40;46.30;;;;;;;;;;5010185;28;20064;-79
2023/08/25 11:34:42;;;;;;;61.72;44.95;;;;;;;;;;5010537;28;20037;-79
2023/08/25 11:37:13;;;;;;;63.55;43.97;;;;;;;;;;5002797;28;20125;-78
2023/08/25 11:39:42;;;;;;;67.65;45.63;;;;;;;;;;4996992;28;20021;-78
2023/08/25 11:42:09;;;;;;;62.78;45.40;;;;;;;;;;5010890;28;20120;-78
2023/08/25 11:44:40;;;;;;;69.60;46.10;;;;;;;;;;5009503;28;20030;-77
2023/08/25 11:47:06;;;;;;;69.22;46.72;;;;;;;;;;5009612;28;20061;-78
2023/08/25 11:49:33;;;;;;;66.68;46.47;;;;;;;;;;5013395;28;20032;-77
2023/08/25 11:52:00;;;;;;;70.40;48.95;;;;;;;;;;4996171;28;20484;-78
2023/08/25 11:54:27;;;;;;;61.33;45.13;;;;;;;;;;5005507;28;20119;-78
2023/08/25 11:56:54;;;;;;;56.63;43.03;;;;;;;;;;5011504;28;20041;-77
2023/08/25 11:59:20;;;;;;;56.58;42.88;;;;;;;;;;5012403;28;20045;-77
2023/08/25 12:01:50;;;;;;;47.80;37.05;;;;;;;;;;5013129;28;20030;-77
2023/08/25 12:04:20;;;;;;;46.00;34.93;;;;;;;;;;5012501;28;20125;-78
2023/08/25 12:06:47;;;;;;;43.88;35.83;;;;;;;;;;5005630;28;20038;-76
2023/08/25 12:09:13;;;;;;;50.97;37.85;;;;;;;;;;4992684;28;20033;-77
2023/08/25 12:11:40;;;;;;;54.22;39.00;;;;;;;;;;5007547;28;20025;-78
2023/08/25 12:14:06;;;;;;;47.15;37.42;;;;;;;;;;5014646;28;20038;-77
2023/08/25 12:16:32;;;;;;;50.17;37.17;;;;;;;;;;5004429;28;20119;-76
2023/08/25 12:19:04;;;;;;;44.38;36.10;;;;;;;;;;5013242;28;20049;-76
2023/08/25 12:21:35;;;;;;;46.70;34.83;;;;;;;;;;5012796;28;20087;-77
2023/08/25 12:24:02;;;;;;;46.25;35.58;;;;;;;;;;4972236;28;20117;-78
2023/08/25 12:26:28;;;;;;;40.70;33.28;;;;;;;;;;4992489;28;20128;-77
2023/08/25 12:28:54;;;;;;;48.38;36.40;;;;;;;;;;4976263;28;20027;-77
2023/08/25 12:31:20;;;;;;;41.35;34.20;;;;;;;;;;4987434;28;20062;-77
2023/08/25 12:33:46;;;;;;;46.70;34.63;;;;;;;;;;5012294;28;20088;-78
2023/08/25 12:36:12;;;;;;;44.88;34.65;;;;;;;;;;5012313;28;20496;-78
2023/08/25 12:38:39;;;;;;;45.20;36.80;;;;;;;;;;5013196;28;20117;-78
2023/08/25 12:41:05;;;;;;;46.67;35.88;;;;;;;;;;5004593;28;20037;-78
2023/08/25 12:43:33;;;;;;;44.88;34.60;;;;;;;;;;4987011;28;20030;-77
2023/08/25 12:45:59;;;;;;;44.25;33.08;;;;;;;;;;4978400;28;20049;-77
2023/08/25 12:48:25;;;;;;;39.08;30.27;;;;;;;;;;5013017;28;20158;-78
2023/08/25 12:50:51;;;;;;;47.05;33.38;;;;;;;;;;5015611;28;20129;-77
2023/08/25 12:53:17;;;;;;;44.63;32.88;;;;;;;;;;5001455;28;20030;-78
2023/08/25 12:55:44;;;;;;;44.17;31.65;;;;;;;;;;5012024;28;20026;-77
2023/08/25 12:58:10;;;;;;;39.28;29.75;;;;;;;;;;5011303;28;20053;-78
2023/08/25 13:00:36;;;;;;;37.15;28.70;;;;;;;;;;5012380;28;20105;-78
2023/08/25 13:03:02;;;;;;;41.75;28.13;;;;;;;;;;5011561;28;20026;-77
2023/08/25 13:05:30;;;;;;;44.67;26.40;;;;;;;;;;5008647;28;20053;-78
2023/08/25 13:07:56;;;;;;;38.47;25.65;;;;;;;;;;5008366;28;20116;-77
2023/08/25 13:10:22;;;;;;;34.53;22.33;;;;;;;;;;5012847;28;20125;-77
2023/08/25 13:12:48;;;;;;;38.53;25.98;;;;;;;;;;4991170;28;20038;-77
2023/08/25 13:15:15;;;;;;;35.65;25.83;;;;;;;;;;4975905;28;20038;-77
2023/08/25 13:17:44;;;;;;;36.38;24.60;;;;;;;;;;4985903;28;20049;-76
2023/08/25 13:20:10;;;;;;;38.22;26.08;;;;;;;;;;4991131;28;20041;-79
2023/08/25 13:22:36;;;;;;;39.28;26.30;;;;;;;;;;5006350;28;20042;-78
2023/08/25 13:25:03;;;;;;;38.63;24.90;;;;;;;;;;5007449;28;20034;-77
2023/08/25 13:27:29;;;;;;;38.65;25.48;;;;;;;;;;5004137;28;20026;-77
2023/08/25 13:29:55;;;;;;;39.65;27.08;;;;;;;;;;5012143;28;20112;-77
2023/08/25 13:32:22;;;;;;;41.80;27.10;;;;;;;;;;4996836;28;20105;-78
2023/08/25 13:34:48;;;;;;;37.10;25.48;;;;;;;;;;5016991;28;20091;-78
2023/08/25 13:37:14;;;;;;;39.15;26.83;;;;;;;;;;5000063;28;20117;-76
2023/08/25 13:39:41;;;;;;;37.22;28.42;;;;;;;;;;5008289;28;20034;-76
2023/08/25 13:42:07;;;;;;;48.08;31.38;;;;;;;;;;4991106;28;20026;-76
2023/08/25 13:44:37;;;;;;;41.08;29.30;;;;;;;;;;5010679;28;20080;-75
2023/08/25 13:47:05;;;;;;;41.30;29.02;;;;;;;;;;5009497;28;20384;-74
2023/08/25 13:49:31;;;;;;;40.03;29.40;;;;;;;;;;4991038;28;20034;-77
2023/08/25 13:51:57;;;;;;;39.55;28.88;;;;;;;;;;5010177;28;20041;-76
2023/08/25 13:54:23;;;;;;;43.38;29.95;;;;;;;;;;5003723;28;20034;-79
2023/08/25 13:56:49;;;;;;;38.22;28.00;;;;;;;;;;4993350;28;20056;-77
2023/08/25 13:59:16;;;;;;;42.45;28.17;;;;;;;;;;4994406;28;20038;-78
2023/08/25 14:01:42;;;;;;;37.38;27.75;;;;;;;;;;5001673;28;20056;-75
2023/08/25 14:04:08;;;;;;;40.53;27.42;;;;;;;;;;5010858;28;20034;-76
2023/08/25 14:06:34;;;;;;;41.47;27.55;;;;;;;;;;5010635;28;20034;-75
2023/08/25 14:09:00;;;;;;;44.63;28.33;;;;;;;;;;5006855;28;20126;-75
2023/08/25 14:11:27;;;;;;;39.38;27.35;;;;;;;;;;5010841;28;20033;-76